sensor_id;sensor_type;location;lat;lon;timestamp;pressure;altitude;pressure_sealevel;temperature;humidity
69037;BME280;58547;51.690;5.186;2022-12-18T00:03:51;102916.75;;;-3.56;100.00
69037;BME280;58547;51.690;5.186;2022-12-18T00:06:17;102907.09;;;-3.64;100.00
69037;BME280;58547;51.690;5.186;2022-12-18T00:08:44;102902.72;;;-3.67;100.00
69037;BME280;58547;51.690;5.186;2022-12-18T00:11:18;102902.50;;;-3.73;100.00
69037;BME280;58547;51.690;5.186;2022-12-18T00:13:44;102902.38;;;-3.76;100.00
69037;BME280;58547;51.690;5.186;2022-12-18T00:16:13;102899.91;;;-3.75;100.00
69037;BME280;58547;51.690;5.186;2022-12-18T00:18:40;102902.50;;;-3.73;100.00
69037;BME280;58547;51.690;5.186;2022-12-18T00:21:07;102882.22;;;-3.70;100.00
69037;BME280;58547;51.690;5.186;2022-12-18T00:23:34;102878.75;;;-3.72;100.00
69037;BME280;58547;51.690;5.186;2022-12-18T00:26:05;102863.06;;;-3.81;100.00
69037;BME280;58547;51.690;5.186;2022-12-18T00:28:31;102877.28;;;-3.88;100.00
69037;BME280;58547;51.690;5.186;2022-12-18T00:31:21;102879.50;;;-3.97;100.00
69037;BME280;58547;51.690;5.186;2022-12-18T00:33:47;102886.63;;;-3.89;100.00
69037;BME280;58547;51.690;5.186;2022-12-18T00:36:18;102883.53;;;-3.80;100.00
69037;BME280;58547;51.690;5.186;2022-12-18T00:38:44;102874.41;;;-3.75;100.00
69037;BME280;58547;51.690;5.186;2022-12-18T00:41:12;102872.56;;;-3.79;100.00
69037;BME280;58547;51.690;5.186;2022-12-18T00:43:38;102874.16;;;-3.81;100.00
69037;BME280;58547;51.690;5.186;2022-12-18T00:46:04;102860.13;;;-3.92;100.00
69037;BME280;58547;51.690;5.186;2022-12-18T00:48:30;102859.66;;;-4.04;100.00
69037;BME280;58547;51.690;5.186;2022-12-18T00:50:55;102857.53;;;-4.16;100.00
69037;BME280;58547;51.690;5.186;2022-12-18T00:53:20;102852.16;;;-4.45;99.06
69037;BME280;58547;51.690;5.186;2022-12-18T00:55:46;102864.06;;;-4.65;100.00
69037;BME280;58547;51.690;5.186;2022-12-18T00:58:13;102866.44;;;-4.70;100.00
69037;BME280;58547;51.690;5.186;2022-12-18T01:00:39;102869.06;;;-4.68;100.00
69037;BME280;58547;51.690;5.186;2022-12-18T01:03:05;102880.84;;;-4.70;100.00
69037;BME280;58547;51.690;5.186;2022-12-18T01:05:31;102880.59;;;-4.76;100.00
69037;BME280;58547;51.690;5.186;2022-12-18T01:07:56;102891.53;;;-4.79;99.88
69037;BME280;58547;51.690;5.186;2022-12-18T01:10:22;102887.66;;;-4.90;99.34
69037;BME280;58547;51.690;5.186;2022-12-18T01:12:48;102874.34;;;-5.04;99.00
69037;BME280;58547;51.690;5.186;2022-12-18T01:15:14;102887.78;;;-5.06;100.00
69037;BME280;58547;51.690;5.186;2022-12-18T01:17:40;102888.63;;;-5.07;99.92
69037;BME280;58547;51.690;5.186;2022-12-18T01:20:06;102886.16;;;-5.06;100.00
69037;BME280;58547;51.690;5.186;2022-12-18T01:22:35;102887.19;;;-5.01;100.00
69037;BME280;58547;51.690;5.186;2022-12-18T01:25:01;102881.16;;;-5.03;98.79
69037;BME280;58547;51.690;5.186;2022-12-18T01:27:26;102885.88;;;-5.12;98.45
69037;BME280;58547;51.690;5.186;2022-12-18T01:29:52;102883.59;;;-5.25;98.80
69037;BME280;58547;51.690;5.186;2022-12-18T01:32:17;102884.13;;;-5.33;99.35
69037;BME280;58547;51.690;5.186;2022-12-18T01:34:42;102887.53;;;-5.32;100.00
69037;BME280;58547;51.690;5.186;2022-12-18T01:37:08;102883.31;;;-5.32;99.32
69037;BME280;58547;51.690;5.186;2022-12-18T01:39:33;102884.13;;;-5.33;99.25
69037;BME280;58547;51.690;5.186;2022-12-18T01:42:00;102881.72;;;-5.30;98.87
69037;BME280;58547;51.690;5.186;2022-12-18T01:50:14;102886.28;;;-5.22;99.02
69037;BME280;58547;51.690;5.186;2022-12-18T01:52:42;102881.22;;;-5.21;99.60
69037;BME280;58547;51.690;5.186;2022-12-18T01:55:12;102877.53;;;-5.29;99.04
69037;BME280;58547;51.690;5.186;2022-12-18T01:57:38;102884.41;;;-5.26;100.00
69037;BME280;58547;51.690;5.186;2022-12-18T02:00:08;102881.66;;;-5.31;100.00
69037;BME280;58547;51.690;5.186;2022-12-18T02:02:34;102875.69;;;-5.32;98.82
69037;BME280;58547;51.690;5.186;2022-12-18T02:05:00;102875.41;;;-5.38;97.88
69037;BME280;58547;51.690;5.186;2022-12-18T02:07:35;102865.97;;;-5.21;100.00
69037;BME280;58547;51.690;5.186;2022-12-18T02:10:37;102868.00;;;-5.14;100.00
69037;BME280;58547;51.690;5.186;2022-12-18T02:13:30;102869.53;;;-5.17;100.00
69037;BME280;58547;51.690;5.186;2022-12-18T02:16:00;102870.75;;;-5.29;97.94
69037;BME280;58547;51.690;5.186;2022-12-18T02:18:31;102864.19;;;-5.43;96.95
69037;BME280;58547;51.690;5.186;2022-12-18T02:26:20;102870.31;;;-5.57;96.93
69037;BME280;58547;51.690;5.186;2022-12-18T02:28:54;102872.50;;;-5.65;96.63
69037;BME280;58547;51.690;5.186;2022-12-18T02:31:25;102868.72;;;-5.75;95.78
69037;BME280;58547;51.690;5.186;2022-12-18T02:33:56;102859.13;;;-5.80;96.84
69037;BME280;58547;51.690;5.186;2022-12-18T02:36:25;102864.94;;;-5.83;96.86
69037;BME280;58547;51.690;5.186;2022-12-18T02:38:53;102863.84;;;-5.88;96.45
69037;BME280;58547;51.690;5.186;2022-12-18T02:41:24;102856.03;;;-5.93;96.88
69037;BME280;58547;51.690;5.186;2022-12-18T02:43:56;102856.88;;;-5.92;97.29
69037;BME280;58547;51.690;5.186;2022-12-18T02:46:28;102854.34;;;-5.92;97.28
69037;BME280;58547;51.690;5.186;2022-12-18T02:49:08;102843.81;;;-6.01;97.55
69037;BME280;58547;51.690;5.186;2022-12-18T02:51:56;102860.13;;;-5.96;97.77
69037;BME280;58547;51.690;5.186;2022-12-18T03:00:14;102850.31;;;-5.69;98.68
69037;BME280;58547;51.690;5.186;2022-12-18T03:02:53;102844.63;;;-5.63;99.83
69037;BME280;58547;51.690;5.186;2022-12-18T03:05:23;102832.19;;;-5.57;97.84
69037;BME280;58547;51.690;5.186;2022-12-18T03:08:03;102839.94;;;-5.54;95.52
69037;BME280;58547;51.690;5.186;2022-12-18T03:10:35;102836.06;;;-5.65;95.89
69037;BME280;58547;51.690;5.186;2022-12-18T03:13:33;102827.50;;;-5.67;97.16
69037;BME280;58547;51.690;5.186;2022-12-18T03:16:00;102836.38;;;-5.77;94.69
69037;BME280;58547;51.690;5.186;2022-12-18T03:18:47;102840.03;;;-5.90;95.20
69037;BME280;58547;51.690;5.186;2022-12-18T03:21:17;102837.91;;;-6.00;96.59
69037;BME280;58547;51.690;5.186;2022-12-18T03:23:48;102836.25;;;-6.00;95.28
69037;BME280;58547;51.690;5.186;2022-12-18T03:26:17;102821.53;;;-6.07;96.34
69037;BME280;58547;51.690;5.186;2022-12-18T03:28:51;102832.41;;;-6.09;95.99
69037;BME280;58547;51.690;5.186;2022-12-18T03:31:20;102825.00;;;-6.23;95.94
69037;BME280;58547;51.690;5.186;2022-12-18T03:33:53;102816.91;;;-6.34;97.38
69037;BME280;58547;51.690;5.186;2022-12-18T03:36:19;102820.25;;;-6.35;96.71
69037;BME280;58547;51.690;5.186;2022-12-18T03:38:45;102826.84;;;-6.38;96.94
69037;BME280;58547;51.690;5.186;2022-12-18T03:44:08;102811.53;;;-6.40;98.09
69037;BME280;58547;51.690;5.186;2022-12-18T03:49:30;102808.13;;;-6.40;96.73
69037;BME280;58547;51.690;5.186;2022-12-18T03:52:26;102796.75;;;-6.48;97.21
69037;BME280;58547;51.690;5.186;2022-12-18T03:54:55;102794.06;;;-6.52;96.37
69037;BME280;58547;51.690;5.186;2022-12-18T03:57:23;102791.53;;;-6.52;97.31
69037;BME280;58547;51.690;5.186;2022-12-18T03:59:55;102790.44;;;-6.57;96.25
69037;BME280;58547;51.690;5.186;2022-12-18T04:02:23;102784.28;;;-6.62;96.82
69037;BME280;58547;51.690;5.186;2022-12-18T04:04:52;102790.13;;;-6.63;98.04
69037;BME280;58547;51.690;5.186;2022-12-18T04:07:19;102783.41;;;-6.62;97.51
69037;BME280;58547;51.690;5.186;2022-12-18T04:09:45;102776.50;;;-6.65;97.39
69037;BME280;58547;51.690;5.186;2022-12-18T04:12:12;102771.94;;;-6.72;96.81
69037;BME280;58547;51.690;5.186;2022-12-18T04:14:37;102782.88;;;-6.73;97.85
69037;BME280;58547;51.690;5.186;2022-12-18T04:17:03;102780.34;;;-6.73;97.62
69037;BME280;58547;51.690;5.186;2022-12-18T04:19:28;102773.34;;;-6.79;98.26
69037;BME280;58547;51.690;5.186;2022-12-18T04:21:54;102770.72;;;-6.80;98.81
69037;BME280;58547;51.690;5.186;2022-12-18T04:24:19;102786.88;;;-6.78;98.91
69037;BME280;58547;51.690;5.186;2022-12-18T04:26:45;102796.22;;;-6.77;97.95
69037;BME280;58547;51.690;5.186;2022-12-18T04:29:10;102799.69;;;-6.75;97.52
69037;BME280;58547;51.690;5.186;2022-12-18T04:31:36;102794.63;;;-6.75;97.33
69037;BME280;58547;51.690;5.186;2022-12-18T04:34:01;102802.88;;;-6.79;97.12
69037;BME280;58547;51.690;5.186;2022-12-18T04:36:26;102803.69;;;-6.80;96.95
69037;BME280;58547;51.690;5.186;2022-12-18T04:38:52;102803.53;;;-6.83;96.90
69037;BME280;58547;51.690;5.186;2022-12-18T04:41:17;102809.41;;;-6.84;97.04
69037;BME280;58547;51.690;5.186;2022-12-18T04:43:43;102810.19;;;-6.85;97.08
69037;BME280;58547;51.690;5.186;2022-12-18T04:46:08;102812.91;;;-6.82;96.73
69037;BME280;58547;51.690;5.186;2022-12-18T04:48:36;102820.44;;;-6.84;96.28
69037;BME280;58547;51.690;5.186;2022-12-18T04:51:02;102815.28;;;-6.85;96.05
69037;BME280;58547;51.690;5.186;2022-12-18T04:53:28;102825.41;;;-6.85;96.67
69037;BME280;58547;51.690;5.186;2022-12-18T04:56:08;102811.78;;;-6.87;96.35
69037;BME280;58547;51.690;5.186;2022-12-18T04:58:35;102827.19;;;-6.84;95.94
69037;BME280;58547;51.690;5.186;2022-12-18T05:01:00;102817.34;;;-6.78;96.35
69037;BME280;58547;51.690;5.186;2022-12-18T05:03:26;102824.84;;;-6.80;96.22
69037;BME280;58547;51.690;5.186;2022-12-18T05:05:51;102824.13;;;-6.77;97.02
69037;BME280;58547;51.690;5.186;2022-12-18T05:08:17;102824.13;;;-6.77;95.57
69037;BME280;58547;51.690;5.186;2022-12-18T05:10:42;102819.66;;;-6.83;95.59
69037;BME280;58547;51.690;5.186;2022-12-18T05:13:08;102811.09;;;-6.85;95.37
69037;BME280;58547;51.690;5.186;2022-12-18T05:15:33;102813.53;;;-6.86;95.66
69037;BME280;58547;51.690;5.186;2022-12-18T05:17:59;102816.88;;;-6.87;96.26
69037;BME280;58547;51.690;5.186;2022-12-18T05:20:26;102818.50;;;-6.89;96.22
69037;BME280;58547;51.690;5.186;2022-12-18T05:22:52;102813.16;;;-6.94;96.49
69037;BME280;58547;51.690;5.186;2022-12-18T05:25:18;102817.28;;;-6.96;96.83
69037;BME280;58547;51.690;5.186;2022-12-18T05:27:44;102819.78;;;-6.98;97.20
69037;BME280;58547;51.690;5.186;2022-12-18T05:30:10;102826.50;;;-6.98;96.70
69037;BME280;58547;51.690;5.186;2022-12-18T05:32:36;102812.81;;;-7.02;96.94
69037;BME280;58547;51.690;5.186;2022-12-18T05:35:03;102824.53;;;-7.04;96.56
69037;BME280;58547;51.690;5.186;2022-12-18T05:37:28;102820.97;;;-7.07;97.91
69037;BME280;58547;51.690;5.186;2022-12-18T05:39:54;102815.91;;;-7.07;97.59
69037;BME280;58547;51.690;5.186;2022-12-18T05:42:19;102815.81;;;-7.09;97.12
69037;BME280;58547;51.690;5.186;2022-12-18T05:44:45;102810.75;;;-7.09;97.55
69037;BME280;58547;51.690;5.186;2022-12-18T05:47:10;102815.81;;;-7.09;97.01
69037;BME280;58547;51.690;5.186;2022-12-18T05:49:35;102794.50;;;-7.13;97.35
69037;BME280;58547;51.690;5.186;2022-12-18T05:52:01;102791.09;;;-7.13;98.00
69037;BME280;58547;51.690;5.186;2022-12-18T05:54:29;102794.50;;;-7.13;97.49
69037;BME280;58547;51.690;5.186;2022-12-18T05:56:54;102787.69;;;-7.14;96.84
69037;BME280;58547;51.690;5.186;2022-12-18T05:59:20;102788.41;;;-7.16;96.62
69037;BME280;58547;51.690;5.186;2022-12-18T06:01:45;102790.69;;;-7.21;97.16
69037;BME280;58547;51.690;5.186;2022-12-18T06:04:11;102791.44;;;-7.23;97.39
69037;BME280;58547;51.690;5.186;2022-12-18T06:06:36;102787.00;;;-7.27;97.99
69037;BME280;58547;51.690;5.186;2022-12-18T06:09:03;102794.69;;;-7.26;98.25
69037;BME280;58547;51.690;5.186;2022-12-18T06:11:34;102791.59;;;-7.20;98.11
69037;BME280;58547;51.690;5.186;2022-12-18T06:14:00;102790.06;;;-7.17;98.14
69037;BME280;58547;51.690;5.186;2022-12-18T06:16:27;102783.34;;;-7.16;97.40
69037;BME280;58547;51.690;5.186;2022-12-18T06:18:52;102784.94;;;-7.18;97.31
69037;BME280;58547;51.690;5.186;2022-12-18T06:21:18;102786.66;;;-7.17;97.76
69037;BME280;58547;51.690;5.186;2022-12-18T06:23:43;102782.44;;;-7.17;96.77
69037;BME280;58547;51.690;5.186;2022-12-18T06:26:11;102795.09;;;-7.18;96.33
69037;BME280;58547;51.690;5.186;2022-12-18T06:28:37;102795.09;;;-7.18;96.64
69037;BME280;58547;51.690;5.186;2022-12-18T06:31:03;102796.81;;;-7.17;95.43
69037;BME280;58547;51.690;5.186;2022-12-18T06:33:29;102791.44;;;-7.23;96.18
69037;BME280;58547;51.690;5.186;2022-12-18T06:36:09;102783.69;;;-7.26;96.83
69037;BME280;58547;51.690;5.186;2022-12-18T06:38:36;102775.34;;;-7.24;96.47
69037;BME280;58547;51.690;5.186;2022-12-18T06:41:13;102772.94;;;-7.21;96.34
69037;BME280;58547;51.690;5.186;2022-12-18T06:43:39;102774.78;;;-7.18;97.98
69037;BME280;58547;51.690;5.186;2022-12-18T06:46:05;102769.09;;;-7.14;98.29
69037;BME280;58547;51.690;5.186;2022-12-18T06:48:31;102768.19;;;-7.15;96.35
69037;BME280;58547;51.690;5.186;2022-12-18T06:50:56;102757.69;;;-7.22;96.23
69037;BME280;58547;51.690;5.186;2022-12-18T06:53:22;102760.94;;;-7.25;96.50
69037;BME280;58547;51.690;5.186;2022-12-18T06:55:47;102761.91;;;-7.23;96.76
69037;BME280;58547;51.690;5.186;2022-12-18T06:58:13;102753.47;;;-7.22;98.02
69037;BME280;58547;51.690;5.186;2022-12-18T07:00:38;102751.97;;;-7.18;97.04
69037;BME280;58547;51.690;5.186;2022-12-18T07:03:03;102745.97;;;-7.20;96.49
69037;BME280;58547;51.690;5.186;2022-12-18T07:05:28;102751.44;;;-7.29;96.00
69037;BME280;58547;51.690;5.186;2022-12-18T07:07:54;102748.53;;;-7.37;95.90
